AirNav   Duncan Aviation - Near you to keep you flying
 
 934 users online  

78OH Valley City Flying Club Airport
Valley City, Ohio, USA

GOING TO VALLEY CITY?


FAA INFORMATION EFFECTIVE 04 NOVEMBER 2021

Location

FAA Identifier: 78OH
Lat/Long: 41-15-25.1920N 081-58-14.5010W
41-15.419867N 081-58.241683W
41.2569978,-81.9706947
(estimated)
Elevation: 850 ft. / 259 m (estimated)
Variation: 06W (1985)
From city: 3 miles NW of VALLEY CITY, OH
Time zone: UTC -4 (UTC -5 during Standard Time)
Zip code: 44280

Airport Operations

Airport use: Private use. Permission required prior to landing
Activation date: 10/1971
Control tower: no
ARTCC: CLEVELAND CENTER
FSS: CLEVELAND FLIGHT SERVICE STATION
Attendance: UNATNDD
Wind indicator: yes
Segmented circle: no
Lights: FOR RWY LGTS CALL 216-483-3954.

Airport Communications

WX ASOS at CLE (11 nm NE): PHONE 216-416-2729
WX ASOS at LPR (11 nm NW): 121.425 (440-323-7088)

Nearby radio navigation aids

VOR radial/distance  VOR name  Freq  Var
DJBr130/10.5DRYER VOR/DME113.6005W
ACOr288/35.9AKRON VOR/DME114.4004W
MFDr053/36.5MANSFIELD VORTAC108.8003W
BSVr326/39.4BRIGGS VOR/DME112.4004W
CXRr252/39.6CHARDON VOR/DME112.7005W

 
NDB name  Hdg/Dist  Freq  Var  ID
LAKELAND234/36.926308WLQL .-.. --.- .-..

Airport Services

Fuel available: 80
Airframe service: MAJOR
Powerplant service: MAJOR

Runway Information

Runway 18/36

Dimensions: 2700 x 100 ft. / 823 x 30 m
Surface: turf
Runway edge lights: low intensity
RUNWAY 18  RUNWAY 36
Traffic pattern: leftleft
Obstructions: plinenone

Runway 5/23

Dimensions: 1800 x 50 ft. / 549 x 15 m
Surface: turf
Runway edge lights: low intensity
RUNWAY 5  RUNWAY 23
Traffic pattern: leftleft
Obstructions: nonepline

Airport Ownership and Management from official FAA records

Ownership: Privately-owned
Owner: JACK W TAFFE
234 WEST RIVER RD
VALLEY CITY, OH 44280
Phone 216-483-3954

Airport Operational Statistics

Aircraft based on the field: 15
Single engine airplanes: 15
    

Additional Remarks

FOR CD CTC CLEVELAND APCH AT 216-352-2323

Instrument Procedures

There are no published instrument procedures at 78OH.

Some nearby airports with instrument procedures:

1G1 - Elyria Airport (7 nm NW)
KCLE - Cleveland-Hopkins International Airport (11 nm NE)
KLPR - Lorain County Regional Airport (11 nm NW)
1G5 - Medina Municipal Airport (12 nm SE)
3G3 - Wadsworth Municipal Airport (18 nm SE)
 
Loc | Ops | Rwys | IFR | FBO | Links
Com | Nav | Svcs | Stats | Notes
Area around 78OH (Valley City Flying Club Airport)
 
Road maps at: MapQuest Bing Google
 
Aerial photo
WARNING: Photo may not be current or correct
Aerial photo of 78OH (Valley City Flying Club Airport)
Do you have a better or more recent aerial photo of Valley City Flying Club Airport that you would like to share? If so, please send us your photo.

 
Sectional chart

 
Airport distance calculator
Flying to Valley City Flying Club Airport? Find the distance to fly.

From to 78OH

Sunrise and sunset
Times for 30-Nov-2021
 Local
(UTC-5)
 Zulu
(UTC)
Morning civil twilight07:0312:03
Sunrise07:3412:34
Sunset16:5921:59
Evening civil twilight17:3022:30

Current date and time
Zulu (UTC)  01-Dec-2021 04:46:33
Local (UTC-5)  30-Nov-2021 23:46:33
 
METAR
KCLE 
11nm NE 
010439Z 29005KT 10SM SCT024 BKN031 BKN200 04/M01 A3005 RMK AO2 T00391011
KLPR 
11nm NW 
010353Z AUTO 32007KT 10SM FEW030 SCT037 03/M01 A3007 RMK AO2 SLP189 T00331011
KBKL 
21nm NE 
010353Z 30013KT 10SM BKN034 OVC042 05/M01 A3005 RMK AO2 SLP180 T00501006 $
TAF
KCLE 
11nm NE 
010306Z 0103/0206 32011KT P6SM SCT045 BKN200 FM010700 28007KT P6SM OVC250 FM012000 19011KT P6SM BKN035 FM012100 19010KT 5SM -RA OVC018 FM012200 19010KT 4SM -SHRA OVC008 FM020100 19011KT P6SM OVC009
NOTAMs
Click for the latest NOTAMs
NOTAMs are issued by the DoD/FAA and will open in a separate window not controlled by AirNav.

 

 
 

Would you like to see your business listed on this page?

 If your business provides an interesting product or service to pilots, flight crews, aircraft, or users of the Valley City Flying Club Airport, you should consider listing it here.  To start the listing process, click on the button below
 
Add a business
 

Other Pages about Valley City Flying Club Airport

Update a link
 
Copyright © AirNav, LLC. All rights reserved. Privacy Policy  Contact